sensor_id;sensor_type;location;lat;lon;timestamp;P1;durP1;ratioP1;P2;durP2;ratioP2
3698;SDS011;1865;50.918;7.092;2022-07-31T00:00:35;8.10;;;1.93;;
3698;SDS011;1865;50.918;7.092;2022-07-31T00:03:04;9.80;;;2.40;;
3698;SDS011;1865;50.918;7.092;2022-07-31T00:05:33;8.60;;;2.10;;
3698;SDS011;1865;50.918;7.092;2022-07-31T00:07:59;8.57;;;2.17;;
3698;SDS011;1865;50.918;7.092;2022-07-31T00:10:26;8.30;;;2.40;;
3698;SDS011;1865;50.918;7.092;2022-07-31T00:12:52;13.03;;;2.27;;
3698;SDS011;1865;50.918;7.092;2022-07-31T00:15:18;7.40;;;2.17;;
3698;SDS011;1865;50.918;7.092;2022-07-31T00:17:46;7.20;;;2.10;;
3698;SDS011;1865;50.918;7.092;2022-07-31T00:20:13;9.13;;;2.40;;
3698;SDS011;1865;50.918;7.092;2022-07-31T00:22:43;7.40;;;1.93;;
3698;SDS011;1865;50.918;7.092;2022-07-31T00:25:12;7.90;;;2.30;;
3698;SDS011;1865;50.918;7.092;2022-07-31T00:27:38;11.70;;;2.50;;
3698;SDS011;1865;50.918;7.092;2022-07-31T00:30:06;12.23;;;2.43;;
3698;SDS011;1865;50.918;7.092;2022-07-31T00:32:38;9.23;;;2.40;;
3698;SDS011;1865;50.918;7.092;2022-07-31T00:35:06;8.80;;;2.50;;
3698;SDS011;1865;50.918;7.092;2022-07-31T00:37:34;8.20;;;2.40;;
3698;SDS011;1865;50.918;7.092;2022-07-31T00:40:05;8.50;;;2.50;;
3698;SDS011;1865;50.918;7.092;2022-07-31T00:42:33;8.50;;;2.33;;
3698;SDS011;1865;50.918;7.092;2022-07-31T00:45:00;9.13;;;2.93;;
3698;SDS011;1865;50.918;7.092;2022-07-31T00:47:26;10.17;;;2.70;;
3698;SDS011;1865;50.918;7.092;2022-07-31T00:49:51;9.37;;;2.20;;
3698;SDS011;1865;50.918;7.092;2022-07-31T00:52:17;8.10;;;2.47;;
3698;SDS011;1865;50.918;7.092;2022-07-31T00:54:43;9.83;;;2.37;;
3698;SDS011;1865;50.918;7.092;2022-07-31T00:57:10;9.80;;;2.90;;
3698;SDS011;1865;50.918;7.092;2022-07-31T00:59:41;8.90;;;2.23;;
3698;SDS011;1865;50.918;7.092;2022-07-31T01:02:10;9.17;;;2.30;;
3698;SDS011;1865;50.918;7.092;2022-07-31T01:04:36;10.97;;;3.00;;
3698;SDS011;1865;50.918;7.092;2022-07-31T01:07:01;7.70;;;2.70;;
3698;SDS011;1865;50.918;7.092;2022-07-31T01:09:28;10.40;;;2.20;;
3698;SDS011;1865;50.918;7.092;2022-07-31T01:12:06;10.60;;;2.80;;
3698;SDS011;1865;50.918;7.092;2022-07-31T01:14:39;9.67;;;2.70;;
3698;SDS011;1865;50.918;7.092;2022-07-31T01:17:09;8.30;;;2.83;;
3698;SDS011;1865;50.918;7.092;2022-07-31T01:19:40;10.43;;;3.13;;
3698;SDS011;1865;50.918;7.092;2022-07-31T01:27:43;8.97;;;2.60;;
3698;SDS011;1865;50.918;7.092;2022-07-31T01:30:34;10.73;;;2.67;;
3698;SDS011;1865;50.918;7.092;2022-07-31T01:33:12;8.80;;;2.67;;
3698;SDS011;1865;50.918;7.092;2022-07-31T01:35:44;11.10;;;2.47;;
3698;SDS011;1865;50.918;7.092;2022-07-31T01:38:24;9.67;;;2.73;;
3698;SDS011;1865;50.918;7.092;2022-07-31T01:40:56;7.90;;;2.83;;
3698;SDS011;1865;50.918;7.092;2022-07-31T01:43:24;13.03;;;3.20;;
3698;SDS011;1865;50.918;7.092;2022-07-31T01:45:54;8.97;;;2.70;;
3698;SDS011;1865;50.918;7.092;2022-07-31T01:48:21;12.03;;;2.90;;
3698;SDS011;1865;50.918;7.092;2022-07-31T01:50:50;9.53;;;2.97;;
3698;SDS011;1865;50.918;7.092;2022-07-31T01:53:20;8.50;;;2.50;;
3698;SDS011;1865;50.918;7.092;2022-07-31T01:55:49;12.20;;;2.90;;
3698;SDS011;1865;50.918;7.092;2022-07-31T01:58:18;8.20;;;3.03;;
3698;SDS011;1865;50.918;7.092;2022-07-31T02:00:45;9.80;;;3.10;;
3698;SDS011;1865;50.918;7.092;2022-07-31T02:03:12;11.10;;;2.50;;
3698;SDS011;1865;50.918;7.092;2022-07-31T02:05:39;8.97;;;3.07;;
3698;SDS011;1865;50.918;7.092;2022-07-31T02:08:06;8.47;;;2.63;;
3698;SDS011;1865;50.918;7.092;2022-07-31T02:10:33;8.90;;;3.13;;
3698;SDS011;1865;50.918;7.092;2022-07-31T02:13:00;9.53;;;2.73;;
3698;SDS011;1865;50.918;7.092;2022-07-31T02:15:28;8.60;;;3.40;;
3698;SDS011;1865;50.918;7.092;2022-07-31T02:17:56;9.10;;;2.73;;
3698;SDS011;1865;50.918;7.092;2022-07-31T02:20:23;10.97;;;3.10;;
3698;SDS011;1865;50.918;7.092;2022-07-31T02:22:49;8.57;;;2.53;;
3698;SDS011;1865;50.918;7.092;2022-07-31T02:25:15;8.60;;;2.63;;
3698;SDS011;1865;50.918;7.092;2022-07-31T02:27:42;10.50;;;3.20;;
3698;SDS011;1865;50.918;7.092;2022-07-31T02:30:09;9.00;;;3.10;;
3698;SDS011;1865;50.918;7.092;2022-07-31T02:32:37;11.40;;;2.50;;
3698;SDS011;1865;50.918;7.092;2022-07-31T02:35:04;11.70;;;2.47;;
3698;SDS011;1865;50.918;7.092;2022-07-31T02:37:33;9.17;;;2.93;;
3698;SDS011;1865;50.918;7.092;2022-07-31T02:40:01;10.13;;;3.10;;
3698;SDS011;1865;50.918;7.092;2022-07-31T02:42:29;16.57;;;3.57;;
3698;SDS011;1865;50.918;7.092;2022-07-31T02:44:55;9.97;;;2.77;;
3698;SDS011;1865;50.918;7.092;2022-07-31T02:47:23;7.90;;;2.90;;
3698;SDS011;1865;50.918;7.092;2022-07-31T02:49:50;7.70;;;2.60;;
3698;SDS011;1865;50.918;7.092;2022-07-31T02:52:19;7.90;;;2.80;;
3698;SDS011;1865;50.918;7.092;2022-07-31T02:54:45;11.77;;;2.90;;
3698;SDS011;1865;50.918;7.092;2022-07-31T02:57:13;11.10;;;2.60;;
3698;SDS011;1865;50.918;7.092;2022-07-31T02:59:39;9.00;;;2.70;;
3698;SDS011;1865;50.918;7.092;2022-07-31T03:02:05;7.33;;;2.53;;
3698;SDS011;1865;50.918;7.092;2022-07-31T03:04:34;9.10;;;2.80;;
3698;SDS011;1865;50.918;7.092;2022-07-31T03:07:02;8.40;;;2.30;;
3698;SDS011;1865;50.918;7.092;2022-07-31T03:09:29;9.20;;;2.70;;
3698;SDS011;1865;50.918;7.092;2022-07-31T03:11:58;8.43;;;3.00;;
3698;SDS011;1865;50.918;7.092;2022-07-31T03:14:24;7.87;;;3.00;;
3698;SDS011;1865;50.918;7.092;2022-07-31T03:16:51;8.57;;;2.83;;
3698;SDS011;1865;50.918;7.092;2022-07-31T03:19:23;7.57;;;2.63;;
3698;SDS011;1865;50.918;7.092;2022-07-31T03:21:50;9.47;;;2.50;;
3698;SDS011;1865;50.918;7.092;2022-07-31T03:24:16;7.50;;;2.57;;
3698;SDS011;1865;50.918;7.092;2022-07-31T03:26:42;13.27;;;3.33;;
3698;SDS011;1865;50.918;7.092;2022-07-31T03:29:08;8.87;;;2.77;;
3698;SDS011;1865;50.918;7.092;2022-07-31T03:31:35;10.57;;;2.83;;
3698;SDS011;1865;50.918;7.092;2022-07-31T03:34:01;8.53;;;2.60;;
3698;SDS011;1865;50.918;7.092;2022-07-31T03:36:26;8.00;;;2.60;;
3698;SDS011;1865;50.918;7.092;2022-07-31T03:38:52;8.60;;;2.53;;
3698;SDS011;1865;50.918;7.092;2022-07-31T03:41:19;14.00;;;2.83;;
3698;SDS011;1865;50.918;7.092;2022-07-31T03:43:45;7.00;;;2.60;;
3698;SDS011;1865;50.918;7.092;2022-07-31T03:46:13;8.23;;;2.80;;
3698;SDS011;1865;50.918;7.092;2022-07-31T03:48:41;7.53;;;2.27;;
3698;SDS011;1865;50.918;7.092;2022-07-31T03:51:07;7.70;;;2.23;;
3698;SDS011;1865;50.918;7.092;2022-07-31T03:53:34;8.93;;;2.60;;
3698;SDS011;1865;50.918;7.092;2022-07-31T03:56:03;26.93;;;3.13;;
3698;SDS011;1865;50.918;7.092;2022-07-31T03:58:32;10.57;;;2.70;;
3698;SDS011;1865;50.918;7.092;2022-07-31T04:00:57;8.33;;;2.47;;
3698;SDS011;1865;50.918;7.092;2022-07-31T04:03:28;9.10;;;2.70;;
3698;SDS011;1865;50.918;7.092;2022-07-31T04:05:55;13.10;;;2.63;;
3698;SDS011;1865;50.918;7.092;2022-07-31T04:08:20;8.40;;;2.83;;
3698;SDS011;1865;50.918;7.092;2022-07-31T04:10:46;8.60;;;2.53;;
3698;SDS011;1865;50.918;7.092;2022-07-31T04:13:12;8.07;;;2.70;;
3698;SDS011;1865;50.918;7.092;2022-07-31T04:15:37;7.80;;;2.50;;
3698;SDS011;1865;50.918;7.092;2022-07-31T04:18:04;10.47;;;2.60;;
3698;SDS011;1865;50.918;7.092;2022-07-31T04:20:30;8.13;;;2.77;;
3698;SDS011;1865;50.918;7.092;2022-07-31T04:22:55;9.87;;;2.63;;
3698;SDS011;1865;50.918;7.092;2022-07-31T04:25:21;10.40;;;2.87;;
3698;SDS011;1865;50.918;7.092;2022-07-31T04:27:56;8.47;;;2.90;;
3698;SDS011;1865;50.918;7.092;2022-07-31T04:30:23;11.83;;;2.60;;
3698;SDS011;1865;50.918;7.092;2022-07-31T04:32:50;12.40;;;3.00;;
3698;SDS011;1865;50.918;7.092;2022-07-31T04:35:15;7.43;;;2.37;;
3698;SDS011;1865;50.918;7.092;2022-07-31T04:37:41;7.87;;;2.20;;
3698;SDS011;1865;50.918;7.092;2022-07-31T04:40:07;8.27;;;2.93;;
3698;SDS011;1865;50.918;7.092;2022-07-31T04:42:34;10.63;;;2.50;;
3698;SDS011;1865;50.918;7.092;2022-07-31T04:45:00;10.13;;;3.20;;
3698;SDS011;1865;50.918;7.092;2022-07-31T04:47:28;12.73;;;3.07;;
3698;SDS011;1865;50.918;7.092;2022-07-31T04:49:54;13.00;;;2.23;;
3698;SDS011;1865;50.918;7.092;2022-07-31T04:52:23;6.93;;;2.10;;
3698;SDS011;1865;50.918;7.092;2022-07-31T04:54:51;8.23;;;2.43;;
3698;SDS011;1865;50.918;7.092;2022-07-31T04:57:17;14.23;;;2.60;;
3698;SDS011;1865;50.918;7.092;2022-07-31T04:59:43;7.20;;;2.43;;
3698;SDS011;1865;50.918;7.092;2022-07-31T05:02:09;10.13;;;2.60;;
3698;SDS011;1865;50.918;7.092;2022-07-31T05:04:35;11.47;;;2.27;;
3698;SDS011;1865;50.918;7.092;2022-07-31T05:07:01;10.10;;;3.10;;
3698;SDS011;1865;50.918;7.092;2022-07-31T05:09:26;8.20;;;2.40;;
3698;SDS011;1865;50.918;7.092;2022-07-31T05:12:00;8.20;;;2.70;;
3698;SDS011;1865;50.918;7.092;2022-07-31T05:14:26;10.67;;;2.57;;
3698;SDS011;1865;50.918;7.092;2022-07-31T05:16:52;8.77;;;2.63;;
3698;SDS011;1865;50.918;7.092;2022-07-31T05:19:17;15.37;;;2.80;;
3698;SDS011;1865;50.918;7.092;2022-07-31T05:21:44;11.63;;;3.27;;
3698;SDS011;1865;50.918;7.092;2022-07-31T05:24:10;12.30;;;2.63;;
3698;SDS011;1865;50.918;7.092;2022-07-31T05:26:37;7.40;;;2.50;;
3698;SDS011;1865;50.918;7.092;2022-07-31T05:29:03;7.70;;;2.30;;
3698;SDS011;1865;50.918;7.092;2022-07-31T05:31:32;7.87;;;2.60;;
3698;SDS011;1865;50.918;7.092;2022-07-31T05:33:59;8.40;;;2.40;;
3698;SDS011;1865;50.918;7.092;2022-07-31T05:36:25;9.90;;;2.50;;
3698;SDS011;1865;50.918;7.092;2022-07-31T05:38:52;8.20;;;2.50;;
3698;SDS011;1865;50.918;7.092;2022-07-31T05:41:17;7.53;;;2.37;;
3698;SDS011;1865;50.918;7.092;2022-07-31T05:43:43;9.70;;;2.80;;
3698;SDS011;1865;50.918;7.092;2022-07-31T05:46:09;15.53;;;2.87;;
3698;SDS011;1865;50.918;7.092;2022-07-31T05:48:37;10.60;;;2.93;;
3698;SDS011;1865;50.918;7.092;2022-07-31T05:51:06;11.07;;;2.50;;
3698;SDS011;1865;50.918;7.092;2022-07-31T05:53:36;14.03;;;2.70;;
3698;SDS011;1865;50.918;7.092;2022-07-31T05:56:02;8.20;;;2.27;;
3698;SDS011;1865;50.918;7.092;2022-07-31T05:58:29;14.53;;;2.80;;
3698;SDS011;1865;50.918;7.092;2022-07-31T06:01:01;8.30;;;2.73;;
3698;SDS011;1865;50.918;7.092;2022-07-31T06:03:27;7.40;;;2.20;;
3698;SDS011;1865;50.918;7.092;2022-07-31T06:05:53;7.27;;;2.30;;
3698;SDS011;1865;50.918;7.092;2022-07-31T06:08:21;9.40;;;3.43;;
3698;SDS011;1865;50.918;7.092;2022-07-31T06:10:49;10.20;;;2.63;;
3698;SDS011;1865;50.918;7.092;2022-07-31T06:13:22;9.60;;;2.73;;
3698;SDS011;1865;50.918;7.092;2022-07-31T06:15:50;13.27;;;2.40;;
3698;SDS011;1865;50.918;7.092;2022-07-31T06:18:17;10.03;;;2.33;;
3698;SDS011;1865;50.918;7.092;2022-07-31T06:20:42;8.60;;;2.30;;
3698;SDS011;1865;50.918;7.092;2022-07-31T06:23:08;7.73;;;2.30;;
3698;SDS011;1865;50.918;7.092;2022-07-31T06:25:34;7.90;;;2.50;;
3698;SDS011;1865;50.918;7.092;2022-07-31T06:27:59;9.50;;;2.33;;
3698;SDS011;1865;50.918;7.092;2022-07-31T06:30:26;8.20;;;2.23;;
3698;SDS011;1865;50.918;7.092;2022-07-31T06:32:52;7.57;;;2.27;;
3698;SDS011;1865;50.918;7.092;2022-07-31T06:35:19;8.10;;;2.27;;
3698;SDS011;1865;50.918;7.092;2022-07-31T06:37:44;10.80;;;2.77;;
3698;SDS011;1865;50.918;7.092;2022-07-31T06:40:11;12.97;;;2.20;;
3698;SDS011;1865;50.918;7.092;2022-07-31T06:42:38;7.70;;;2.00;;
3698;SDS011;1865;50.918;7.092;2022-07-31T06:45:05;10.90;;;2.63;;
3698;SDS011;1865;50.918;7.092;2022-07-31T06:47:31;10.90;;;2.60;;
3698;SDS011;1865;50.918;7.092;2022-07-31T06:49:57;8.87;;;1.73;;
3698;SDS011;1865;50.918;7.092;2022-07-31T06:52:23;11.90;;;2.40;;
3698;SDS011;1865;50.918;7.092;2022-07-31T06:54:49;12.10;;;2.23;;
3698;SDS011;1865;50.918;7.092;2022-07-31T06:57:15;11.60;;;2.23;;
3698;SDS011;1865;50.918;7.092;2022-07-31T06:59:40;9.73;;;2.00;;
3698;SDS011;1865;50.918;7.092;2022-07-31T07:02:08;8.53;;;2.10;;
3698;SDS011;1865;50.918;7.092;2022-07-31T07:04:34;7.57;;;1.70;;
3698;SDS011;1865;50.918;7.092;2022-07-31T07:06:59;16.33;;;2.13;;
3698;SDS011;1865;50.918;7.092;2022-07-31T07:09:28;9.87;;;2.27;;
3698;SDS011;1865;50.918;7.092;2022-07-31T07:11:54;17.47;;;1.87;;
3698;SDS011;1865;50.918;7.092;2022-07-31T07:14:19;9.70;;;2.07;;
3698;SDS011;1865;50.918;7.092;2022-07-31T07:16:49;10.70;;;2.47;;
3698;SDS011;1865;50.918;7.092;2022-07-31T07:19:16;9.43;;;2.17;;
3698;SDS011;1865;50.918;7.092;2022-07-31T07:21:42;10.27;;;2.13;;
3698;SDS011;1865;50.918;7.092;2022-07-31T07:24:08;10.53;;;2.17;;
3698;SDS011;1865;50.918;7.092;2022-07-31T07:26:36;7.93;;;1.83;;
3698;SDS011;1865;50.918;7.092;2022-07-31T07:29:03;10.80;;;2.10;;
3698;SDS011;1865;50.918;7.092;2022-07-31T07:31:29;7.70;;;1.60;;
3698;SDS011;1865;50.918;7.092;2022-07-31T07:33:54;9.70;;;2.17;;
3698;SDS011;1865;50.918;7.092;2022-07-31T07:36:20;7.80;;;1.67;;
3698;SDS011;1865;50.918;7.092;2022-07-31T07:38:47;9.83;;;1.70;;
3698;SDS011;1865;50.918;7.092;2022-07-31T07:41:14;11.10;;;2.30;;
3698;SDS011;1865;50.918;7.092;2022-07-31T07:43:40;8.30;;;1.60;;
3698;SDS011;1865;50.918;7.092;2022-07-31T07:46:06;13.47;;;1.77;;
3698;SDS011;1865;50.918;7.092;2022-07-31T07:48:32;7.87;;;1.63;;
3698;SDS011;1865;50.918;7.092;2022-07-31T07:50:57;7.93;;;1.50;;
3698;SDS011;1865;50.918;7.092;2022-07-31T07:53:24;8.50;;;1.50;;
3698;SDS011;1865;50.918;7.092;2022-07-31T07:55:51;10.83;;;1.27;;
3698;SDS011;1865;50.918;7.092;2022-07-31T07:58:18;6.53;;;1.30;;
3698;SDS011;1865;50.918;7.092;2022-07-31T08:00:43;9.07;;;1.57;;
3698;SDS011;1865;50.918;7.092;2022-07-31T08:03:10;9.50;;;1.70;;
3698;SDS011;1865;50.918;7.092;2022-07-31T08:05:36;10.33;;;1.80;;
3698;SDS011;1865;50.918;7.092;2022-07-31T08:08:01;8.93;;;1.97;;
3698;SDS011;1865;50.918;7.092;2022-07-31T08:10:27;7.47;;;2.27;;
3698;SDS011;1865;50.918;7.092;2022-07-31T08:12:54;10.90;;;1.50;;
3698;SDS011;1865;50.918;7.092;2022-07-31T08:15:19;11.60;;;2.00;;
3698;SDS011;1865;50.918;7.092;2022-07-31T08:17:45;7.97;;;1.60;;
3698;SDS011;1865;50.918;7.092;2022-07-31T08:20:10;8.07;;;1.70;;
3698;SDS011;1865;50.918;7.092;2022-07-31T08:22:36;7.50;;;1.40;;
3698;SDS011;1865;50.918;7.092;2022-07-31T08:25:06;7.23;;;1.30;;
3698;SDS011;1865;50.918;7.092;2022-07-31T08:27:32;10.50;;;1.53;;
3698;SDS011;1865;50.918;7.092;2022-07-31T08:29:58;9.10;;;1.47;;
3698;SDS011;1865;50.918;7.092;2022-07-31T08:32:26;8.27;;;1.60;;
3698;SDS011;1865;50.918;7.092;2022-07-31T08:34:55;10.20;;;1.37;;
3698;SDS011;1865;50.918;7.092;2022-07-31T08:37:21;6.80;;;1.10;;
3698;SDS011;1865;50.918;7.092;2022-07-31T08:39:55;9.00;;;1.60;;
3698;SDS011;1865;50.918;7.092;2022-07-31T08:42:21;9.00;;;1.60;;
3698;SDS011;1865;50.918;7.092;2022-07-31T08:44:48;7.20;;;1.30;;
3698;SDS011;1865;50.918;7.092;2022-07-31T08:47:14;8.10;;;1.37;;
3698;SDS011;1865;50.918;7.092;2022-07-31T08:49:42;9.90;;;1.53;;
3698;SDS011;1865;50.918;7.092;2022-07-31T08:52:30;7.60;;;1.50;;
3698;SDS011;1865;50.918;7.092;2022-07-31T08:54:57;6.70;;;1.00;;
3698;SDS011;1865;50.918;7.092;2022-07-31T08:57:27;8.20;;;1.30;;
3698;SDS011;1865;50.918;7.092;2022-07-31T08:59:53;7.00;;;1.20;;
3698;SDS011;1865;50.918;7.092;2022-07-31T09:02:19;15.03;;;1.30;;
3698;SDS011;1865;50.918;7.092;2022-07-31T09:04:50;9.20;;;1.17;;
3698;SDS011;1865;50.918;7.092;2022-07-31T09:07:17;7.23;;;1.40;;
3698;SDS011;1865;50.918;7.092;2022-07-31T09:09:44;6.90;;;1.20;;
3698;SDS011;1865;50.918;7.092;2022-07-31T09:12:14;6.60;;;1.40;;
3698;SDS011;1865;50.918;7.092;2022-07-31T09:14:51;7.53;;;1.37;;
3698;SDS011;1865;50.918;7.092;2022-07-31T09:17:17;7.60;;;1.47;;
3698;SDS011;1865;50.918;7.092;2022-07-31T09:19:44;7.07;;;1.20;;
3698;SDS011;1865;50.918;7.092;2022-07-31T09:22:19;7.10;;;1.20;;
3698;SDS011;1865;50.918;7.092;2022-07-31T09:24:44;7.37;;;1.37;;
3698;SDS011;1865;50.918;7.092;2022-07-31T09:27:10;8.97;;;1.33;;
3698;SDS011;1865;50.918;7.092;2022-07-31T09:29:41;7.77;;;1.47;;
3698;SDS011;1865;50.918;7.092;2022-07-31T09:32:12;7.97;;;1.30;;
3698;SDS011;1865;50.918;7.092;2022-07-31T09:34:40;7.43;;;1.63;;
3698;SDS011;1865;50.918;7.092;2022-07-31T09:37:10;8.73;;;1.20;;
3698;SDS011;1865;50.918;7.092;2022-07-31T09:39:38;7.23;;;1.47;;
3698;SDS011;1865;50.918;7.092;2022-07-31T09:42:04;8.33;;;1.70;;
3698;SDS011;1865;50.918;7.092;2022-07-31T09:44:35;10.23;;;1.80;;
3698;SDS011;1865;50.918;7.092;2022-07-31T09:47:22;8.83;;;1.60;;
3698;SDS011;1865;50.918;7.092;2022-07-31T09:49:51;8.97;;;1.37;;
3698;SDS011;1865;50.918;7.092;2022-07-31T09:52:22;7.10;;;1.23;;
3698;SDS011;1865;50.918;7.092;2022-07-31T09:55:05;8.30;;;1.90;;
3698;SDS011;1865;50.918;7.092;2022-07-31T09:57:49;8.03;;;1.47;;
3698;SDS011;1865;50.918;7.092;2022-07-31T10:00:20;7.37;;;1.50;;
3698;SDS011;1865;50.918;7.092;2022-07-31T10:02:47;7.33;;;1.10;;
3698;SDS011;1865;50.918;7.092;2022-07-31T10:05:14;7.30;;;1.50;;
3698;SDS011;1865;50.918;7.092;2022-07-31T10:07:44;7.73;;;1.37;;
3698;SDS011;1865;50.918;7.092;2022-07-31T10:10:10;8.53;;;1.30;;
3698;SDS011;1865;50.918;7.092;2022-07-31T10:12:39;6.87;;;1.13;;
3698;SDS011;1865;50.918;7.092;2022-07-31T10:15:08;8.10;;;1.10;;
3698;SDS011;1865;50.918;7.092;2022-07-31T10:17:38;6.67;;;1.10;;
3698;SDS011;1865;50.918;7.092;2022-07-31T10:20:07;6.67;;;1.13;;
3698;SDS011;1865;50.918;7.092;2022-07-31T10:22:38;7.50;;;1.40;;
3698;SDS011;1865;50.918;7.092;2022-07-31T10:25:08;7.93;;;1.60;;
3698;SDS011;1865;50.918;7.092;2022-07-31T10:27:37;6.90;;;1.20;;
3698;SDS011;1865;50.918;7.092;2022-07-31T10:30:04;6.80;;;1.00;;
3698;SDS011;1865;50.918;7.092;2022-07-31T10:32:31;8.30;;;1.20;;
3698;SDS011;1865;50.918;7.092;2022-07-31T10:34:58;7.77;;;1.20;;
3698;SDS011;1865;50.918;7.092;2022-07-31T10:37:30;7.60;;;1.03;;
3698;SDS011;1865;50.918;7.092;2022-07-31T10:42:45;8.00;;;1.03;;
3698;SDS011;1865;50.918;7.092;2022-07-31T10:45:30;6.63;;;0.93;;
3698;SDS011;1865;50.918;7.092;2022-07-31T10:47:56;8.00;;;1.30;;
3698;SDS011;1865;50.918;7.092;2022-07-31T10:50:24;8.97;;;1.03;;
3698;SDS011;1865;50.918;7.092;2022-07-31T10:52:54;8.10;;;1.30;;
3698;SDS011;1865;50.918;7.092;2022-07-31T10:55:35;8.40;;;1.23;;
3698;SDS011;1865;50.918;7.092;2022-07-31T11:00:33;8.70;;;1.00;;
3698;SDS011;1865;50.918;7.092;2022-07-31T11:03:10;7.87;;;1.00;;
3698;SDS011;1865;50.918;7.092;2022-07-31T11:05:59;8.50;;;1.20;;
3698;SDS011;1865;50.918;7.092;2022-07-31T11:08:24;7.13;;;1.33;;
3698;SDS011;1865;50.918;7.092;2022-07-31T11:10:51;6.53;;;0.87;;
3698;SDS011;1865;50.918;7.092;2022-07-31T11:13:20;8.60;;;0.83;;
3698;SDS011;1865;50.918;7.092;2022-07-31T11:15:47;7.63;;;1.10;;
3698;SDS011;1865;50.918;7.092;2022-07-31T11:18:20;8.47;;;0.80;;
3698;SDS011;1865;50.918;7.092;2022-07-31T11:21:08;8.10;;;0.90;;
3698;SDS011;1865;50.918;7.092;2022-07-31T11:23:34;7.00;;;0.90;;
3698;SDS011;1865;50.918;7.092;2022-07-31T11:26:03;7.40;;;0.87;;
3698;SDS011;1865;50.918;7.092;2022-07-31T11:28:32;7.20;;;0.93;;
3698;SDS011;1865;50.918;7.092;2022-07-31T11:30:59;7.60;;;1.13;;
3698;SDS011;1865;50.918;7.092;2022-07-31T11:33:34;7.80;;;1.10;;
3698;SDS011;1865;50.918;7.092;2022-07-31T11:38:46;7.20;;;1.20;;
3698;SDS011;1865;50.918;7.092;2022-07-31T11:41:14;7.37;;;1.13;;
3698;SDS011;1865;50.918;7.092;2022-07-31T11:43:47;6.70;;;1.03;;
3698;SDS011;1865;50.918;7.092;2022-07-31T11:46:18;8.67;;;1.27;;
3698;SDS011;1865;50.918;7.092;2022-07-31T11:48:52;7.70;;;1.23;;
3698;SDS011;1865;50.918;7.092;2022-07-31T11:51:20;7.70;;;1.07;;
3698;SDS011;1865;50.918;7.092;2022-07-31T11:53:46;7.67;;;1.27;;
3698;SDS011;1865;50.918;7.092;2022-07-31T11:56:14;6.90;;;1.10;;
3698;SDS011;1865;50.918;7.092;2022-07-31T11:58:45;10.27;;;1.53;;
3698;SDS011;1865;50.918;7.092;2022-07-31T12:01:16;8.23;;;1.37;;
3698;SDS011;1865;50.918;7.092;2022-07-31T12:03:43;7.60;;;1.20;;
3698;SDS011;1865;50.918;7.092;2022-07-31T12:06:10;7.10;;;1.10;;
3698;SDS011;1865;50.918;7.092;2022-07-31T12:08:36;8.03;;;1.57;;
3698;SDS011;1865;50.918;7.092;2022-07-31T12:11:04;8.23;;;1.20;;
3698;SDS011;1865;50.918;7.092;2022-07-31T12:13:32;9.03;;;1.50;;
3698;SDS011;1865;50.918;7.092;2022-07-31T12:15:59;9.73;;;1.20;;
3698;SDS011;1865;50.918;7.092;2022-07-31T12:18:47;8.27;;;1.53;;
3698;SDS011;1865;50.918;7.092;2022-07-31T12:21:15;9.70;;;1.30;;
3698;SDS011;1865;50.918;7.092;2022-07-31T12:26:12;6.90;;;1.00;;
3698;SDS011;1865;50.918;7.092;2022-07-31T12:29:30;9.80;;;1.70;;
3698;SDS011;1865;50.918;7.092;2022-07-31T12:31:59;7.83;;;1.47;;
3698;SDS011;1865;50.918;7.092;2022-07-31T12:34:31;7.83;;;1.47;;
3698;SDS011;1865;50.918;7.092;2022-07-31T12:37:15;7.30;;;1.37;;
3698;SDS011;1865;50.918;7.092;2022-07-31T12:42:19;7.63;;;1.40;;
3698;SDS011;1865;50.918;7.092;2022-07-31T12:44:53;6.43;;;0.93;;
3698;SDS011;1865;50.918;7.092;2022-07-31T12:47:26;6.80;;;0.90;;
3698;SDS011;1865;50.918;7.092;2022-07-31T12:49:54;7.27;;;1.17;;
3698;SDS011;1865;50.918;7.092;2022-07-31T12:52:20;9.70;;;1.60;;
3698;SDS011;1865;50.918;7.092;2022-07-31T12:54:48;7.07;;;1.23;;
3698;SDS011;1865;50.918;7.092;2022-07-31T12:57:14;9.30;;;1.50;;
3698;SDS011;1865;50.918;7.092;2022-07-31T12:59:40;9.50;;;1.53;;
3698;SDS011;1865;50.918;7.092;2022-07-31T13:02:07;7.17;;;1.30;;
3698;SDS011;1865;50.918;7.092;2022-07-31T13:04:33;7.73;;;1.30;;
3698;SDS011;1865;50.918;7.092;2022-07-31T13:07:00;9.20;;;1.30;;
3698;SDS011;1865;50.918;7.092;2022-07-31T13:09:26;7.27;;;1.20;;
3698;SDS011;1865;50.918;7.092;2022-07-31T13:11:52;7.13;;;1.70;;
3698;SDS011;1865;50.918;7.092;2022-07-31T13:14:19;8.10;;;1.40;;
3698;SDS011;1865;50.918;7.092;2022-07-31T13:16:50;10.83;;;1.40;;
3698;SDS011;1865;50.918;7.092;2022-07-31T13:19:17;11.00;;;1.50;;
3698;SDS011;1865;50.918;7.092;2022-07-31T13:21:42;8.83;;;1.27;;
3698;SDS011;1865;50.918;7.092;2022-07-31T13:24:09;8.60;;;1.43;;
3698;SDS011;1865;50.918;7.092;2022-07-31T13:26:35;9.53;;;1.50;;
3698;SDS011;1865;50.918;7.092;2022-07-31T13:29:03;7.60;;;1.43;;
3698;SDS011;1865;50.918;7.092;2022-07-31T13:31:30;7.43;;;1.30;;
3698;SDS011;1865;50.918;7.092;2022-07-31T13:33:57;8.70;;;1.70;;
3698;SDS011;1865;50.918;7.092;2022-07-31T13:36:24;8.50;;;1.73;;
3698;SDS011;1865;50.918;7.092;2022-07-31T13:38:50;23.47;;;1.73;;
3698;SDS011;1865;50.918;7.092;2022-07-31T13:41:16;13.23;;;1.67;;
3698;SDS011;1865;50.918;7.092;2022-07-31T13:43:45;7.07;;;1.50;;
3698;SDS011;1865;50.918;7.092;2022-07-31T13:46:12;10.23;;;1.77;;
3698;SDS011;1865;50.918;7.092;2022-07-31T13:48:37;9.50;;;1.70;;
3698;SDS011;1865;50.918;7.092;2022-07-31T13:51:04;7.87;;;1.67;;
3698;SDS011;1865;50.918;7.092;2022-07-31T13:53:29;8.20;;;1.50;;
3698;SDS011;1865;50.918;7.092;2022-07-31T13:55:55;9.97;;;1.50;;
3698;SDS011;1865;50.918;7.092;2022-07-31T13:58:22;7.73;;;1.67;;
3698;SDS011;1865;50.918;7.092;2022-07-31T14:00:51;8.03;;;1.60;;
3698;SDS011;1865;50.918;7.092;2022-07-31T14:03:17;9.63;;;1.70;;
3698;SDS011;1865;50.918;7.092;2022-07-31T14:05:44;8.00;;;1.70;;
3698;SDS011;1865;50.918;7.092;2022-07-31T14:08:10;8.27;;;1.90;;
3698;SDS011;1865;50.918;7.092;2022-07-31T14:10:36;7.67;;;1.67;;
3698;SDS011;1865;50.918;7.092;2022-07-31T14:13:01;8.47;;;2.00;;
3698;SDS011;1865;50.918;7.092;2022-07-31T14:15:27;12.33;;;1.70;;
3698;SDS011;1865;50.918;7.092;2022-07-31T14:17:53;7.30;;;1.53;;
3698;SDS011;1865;50.918;7.092;2022-07-31T14:20:18;8.40;;;1.83;;
3698;SDS011;1865;50.918;7.092;2022-07-31T14:22:47;7.47;;;1.60;;
3698;SDS011;1865;50.918;7.092;2022-07-31T14:25:14;8.10;;;2.00;;
3698;SDS011;1865;50.918;7.092;2022-07-31T14:27:41;9.23;;;1.73;;
3698;SDS011;1865;50.918;7.092;2022-07-31T14:30:10;7.87;;;1.90;;
3698;SDS011;1865;50.918;7.092;2022-07-31T14:32:37;11.60;;;1.93;;
3698;SDS011;1865;50.918;7.092;2022-07-31T14:35:03;14.70;;;2.00;;
3698;SDS011;1865;50.918;7.092;2022-07-31T14:37:29;12.20;;;1.80;;
3698;SDS011;1865;50.918;7.092;2022-07-31T14:39:56;7.97;;;2.00;;
3698;SDS011;1865;50.918;7.092;2022-07-31T14:42:21;8.83;;;1.70;;
3698;SDS011;1865;50.918;7.092;2022-07-31T14:44:48;9.20;;;1.97;;
3698;SDS011;1865;50.918;7.092;2022-07-31T14:47:14;7.70;;;1.87;;
3698;SDS011;1865;50.918;7.092;2022-07-31T14:49:44;8.13;;;1.83;;
3698;SDS011;1865;50.918;7.092;2022-07-31T14:52:10;10.00;;;2.00;;
3698;SDS011;1865;50.918;7.092;2022-07-31T14:54:37;7.83;;;1.80;;
3698;SDS011;1865;50.918;7.092;2022-07-31T14:57:02;9.00;;;1.90;;
3698;SDS011;1865;50.918;7.092;2022-07-31T14:59:29;9.20;;;2.20;;
3698;SDS011;1865;50.918;7.092;2022-07-31T15:01:58;7.43;;;1.50;;
3698;SDS011;1865;50.918;7.092;2022-07-31T15:04:25;8.10;;;1.80;;
3698;SDS011;1865;50.918;7.092;2022-07-31T15:06:52;8.93;;;1.90;;
3698;SDS011;1865;50.918;7.092;2022-07-31T15:09:18;8.00;;;1.63;;
3698;SDS011;1865;50.918;7.092;2022-07-31T15:11:45;10.63;;;1.50;;
3698;SDS011;1865;50.918;7.092;2022-07-31T15:14:12;8.07;;;1.30;;
3698;SDS011;1865;50.918;7.092;2022-07-31T15:16:40;12.30;;;1.73;;
3698;SDS011;1865;50.918;7.092;2022-07-31T15:19:07;7.90;;;1.60;;
3698;SDS011;1865;50.918;7.092;2022-07-31T15:21:43;8.33;;;2.10;;
3698;SDS011;1865;50.918;7.092;2022-07-31T15:24:09;10.40;;;1.50;;
3698;SDS011;1865;50.918;7.092;2022-07-31T15:26:36;11.10;;;1.70;;
3698;SDS011;1865;50.918;7.092;2022-07-31T15:29:02;9.17;;;1.50;;
3698;SDS011;1865;50.918;7.092;2022-07-31T15:31:28;12.27;;;2.07;;
3698;SDS011;1865;50.918;7.092;2022-07-31T15:33:54;8.80;;;1.70;;
3698;SDS011;1865;50.918;7.092;2022-07-31T15:36:23;7.53;;;1.80;;